Terminal Aerodrome Forecast
Issued by NWS

Home | Current Version | Previous Version | Text Only | Print | Product List | Glossary On
Versions: 1 2 3 4 5 6 7 8 9 10 11 12 13 14 15 16 17 18
000
FTUS43 KAPX 211743
TAFAPN
TAF
KAPN 211743Z 2118/2218 24010KT P6SM BKN120
     FM220100 20010KT P6SM SCT120 WS014/22030KT
     FM221000 20013KT P6SM OVC014 WS011/23045KT
     FM221300 20013KT 4SM -FZDZ OVC009 WS011/23040KT=

USA.gov is the U.S. government's official web portal to all federal, state and local government web resources and services.